sensor_id;sensor_type;location;lat;lon;timestamp;P1;durP1;ratioP1;P2;durP2;ratioP2
313;SDS011;143;51.634;7.112;2022-09-13T00:01:46;7.50;;;3.70;;
313;SDS011;143;51.634;7.112;2022-09-13T00:04:12;6.23;;;3.10;;
313;SDS011;143;51.634;7.112;2022-09-13T00:06:38;5.43;;;3.60;;
313;SDS011;143;51.634;7.112;2022-09-13T00:09:04;4.30;;;3.20;;
313;SDS011;143;51.634;7.112;2022-09-13T00:11:29;4.97;;;3.47;;
313;SDS011;143;51.634;7.112;2022-09-13T00:13:56;6.57;;;3.10;;
313;SDS011;143;51.634;7.112;2022-09-13T00:16:23;4.30;;;2.93;;
313;SDS011;143;51.634;7.112;2022-09-13T00:18:51;4.23;;;3.13;;
313;SDS011;143;51.634;7.112;2022-09-13T00:21:18;4.53;;;3.03;;
313;SDS011;143;51.634;7.112;2022-09-13T00:23:46;5.93;;;2.90;;
313;SDS011;143;51.634;7.112;2022-09-13T00:26:13;6.50;;;2.97;;
313;SDS011;143;51.634;7.112;2022-09-13T00:28:42;7.50;;;3.00;;
313;SDS011;143;51.634;7.112;2022-09-13T00:31:09;6.70;;;2.80;;
313;SDS011;143;51.634;7.112;2022-09-13T00:33:35;9.00;;;3.00;;
313;SDS011;143;51.634;7.112;2022-09-13T00:36:05;4.83;;;3.40;;
313;SDS011;143;51.634;7.112;2022-09-13T00:38:36;5.20;;;2.87;;
313;SDS011;143;51.634;7.112;2022-09-13T00:41:03;5.03;;;2.87;;
313;SDS011;143;51.634;7.112;2022-09-13T00:43:41;4.77;;;3.10;;
313;SDS011;143;51.634;7.112;2022-09-13T00:51:51;3.50;;;2.50;;
313;SDS011;143;51.634;7.112;2022-09-13T00:54:23;5.83;;;2.90;;
313;SDS011;143;51.634;7.112;2022-09-13T00:56:54;5.67;;;3.90;;
313;SDS011;143;51.634;7.112;2022-09-13T00:59:30;6.00;;;3.37;;
313;SDS011;143;51.634;7.112;2022-09-13T01:02:08;6.17;;;3.17;;
313;SDS011;143;51.634;7.112;2022-09-13T01:04:33;3.70;;;2.67;;
313;SDS011;143;51.634;7.112;2022-09-13T01:07:02;5.73;;;3.30;;
313;SDS011;143;51.634;7.112;2022-09-13T01:09:31;6.73;;;3.40;;
313;SDS011;143;51.634;7.112;2022-09-13T01:12:11;5.43;;;3.40;;
313;SDS011;143;51.634;7.112;2022-09-13T01:14:44;5.00;;;2.90;;
313;SDS011;143;51.634;7.112;2022-09-13T01:17:11;4.40;;;3.10;;
313;SDS011;143;51.634;7.112;2022-09-13T01:19:38;11.93;;;3.40;;
313;SDS011;143;51.634;7.112;2022-09-13T01:24:56;8.00;;;3.40;;
313;SDS011;143;51.634;7.112;2022-09-13T01:30:07;5.77;;;2.80;;
313;SDS011;143;51.634;7.112;2022-09-13T01:43:54;4.57;;;3.00;;
313;SDS011;143;51.634;7.112;2022-09-13T01:51:53;6.60;;;3.20;;
313;SDS011;143;51.634;7.112;2022-09-13T01:59:56;11.43;;;4.10;;
313;SDS011;143;51.634;7.112;2022-09-13T02:08:05;9.30;;;3.07;;
313;SDS011;143;51.634;7.112;2022-09-13T02:10:45;6.53;;;3.00;;
313;SDS011;143;51.634;7.112;2022-09-13T02:13:34;5.47;;;3.20;;
313;SDS011;143;51.634;7.112;2022-09-13T02:16:07;4.20;;;2.60;;
313;SDS011;143;51.634;7.112;2022-09-13T02:19:02;8.10;;;3.27;;
313;SDS011;143;51.634;7.112;2022-09-13T02:21:33;4.93;;;2.73;;
313;SDS011;143;51.634;7.112;2022-09-13T02:24:07;7.40;;;3.63;;
313;SDS011;143;51.634;7.112;2022-09-13T02:26:37;7.93;;;3.63;;
313;SDS011;143;51.634;7.112;2022-09-13T02:29:09;5.87;;;3.90;;
313;SDS011;143;51.634;7.112;2022-09-13T02:31:40;7.27;;;3.77;;
313;SDS011;143;51.634;7.112;2022-09-13T02:34:17;6.83;;;3.50;;
313;SDS011;143;51.634;7.112;2022-09-13T02:36:51;4.93;;;4.03;;
313;SDS011;143;51.634;7.112;2022-09-13T02:39:20;9.63;;;3.63;;
313;SDS011;143;51.634;7.112;2022-09-13T02:44:44;5.47;;;3.33;;
313;SDS011;143;51.634;7.112;2022-09-13T02:52:43;8.43;;;4.43;;
313;SDS011;143;51.634;7.112;2022-09-13T02:58:08;7.60;;;3.90;;
313;SDS011;143;51.634;7.112;2022-09-13T03:00:41;6.03;;;3.50;;
313;SDS011;143;51.634;7.112;2022-09-13T03:03:08;5.90;;;3.83;;
313;SDS011;143;51.634;7.112;2022-09-13T03:05:36;5.10;;;3.47;;
313;SDS011;143;51.634;7.112;2022-09-13T03:08:02;6.20;;;3.23;;
313;SDS011;143;51.634;7.112;2022-09-13T03:10:32;11.20;;;3.77;;
313;SDS011;143;51.634;7.112;2022-09-13T03:15:49;5.43;;;3.50;;
313;SDS011;143;51.634;7.112;2022-09-13T03:24:24;8.00;;;3.57;;
313;SDS011;143;51.634;7.112;2022-09-13T03:27:16;4.60;;;3.27;;
313;SDS011;143;51.634;7.112;2022-09-13T03:30:03;6.90;;;3.60;;
313;SDS011;143;51.634;7.112;2022-09-13T03:40:59;9.50;;;3.20;;
313;SDS011;143;51.634;7.112;2022-09-13T03:43:37;6.07;;;3.70;;
313;SDS011;143;51.634;7.112;2022-09-13T03:46:26;6.13;;;3.57;;
313;SDS011;143;51.634;7.112;2022-09-13T03:49:06;5.60;;;3.20;;
313;SDS011;143;51.634;7.112;2022-09-13T03:51:34;8.40;;;4.17;;
313;SDS011;143;51.634;7.112;2022-09-13T03:54:02;7.87;;;3.50;;
313;SDS011;143;51.634;7.112;2022-09-13T03:56:32;6.27;;;3.10;;
313;SDS011;143;51.634;7.112;2022-09-13T03:58:58;7.10;;;3.40;;
313;SDS011;143;51.634;7.112;2022-09-13T04:01:24;9.07;;;2.80;;
313;SDS011;143;51.634;7.112;2022-09-13T04:03:51;9.27;;;4.27;;
313;SDS011;143;51.634;7.112;2022-09-13T04:06:17;7.07;;;3.60;;
313;SDS011;143;51.634;7.112;2022-09-13T04:08:42;8.23;;;3.00;;
313;SDS011;143;51.634;7.112;2022-09-13T04:11:11;7.93;;;3.80;;
313;SDS011;143;51.634;7.112;2022-09-13T04:13:37;11.57;;;3.90;;
313;SDS011;143;51.634;7.112;2022-09-13T04:16:03;6.70;;;3.63;;
313;SDS011;143;51.634;7.112;2022-09-13T04:18:30;11.17;;;3.83;;
313;SDS011;143;51.634;7.112;2022-09-13T04:20:56;6.63;;;3.90;;
313;SDS011;143;51.634;7.112;2022-09-13T04:23:24;7.50;;;3.73;;
313;SDS011;143;51.634;7.112;2022-09-13T04:25:50;9.03;;;4.10;;
313;SDS011;143;51.634;7.112;2022-09-13T04:28:19;6.80;;;3.97;;
313;SDS011;143;51.634;7.112;2022-09-13T04:30:46;10.57;;;4.00;;
313;SDS011;143;51.634;7.112;2022-09-13T04:33:13;5.47;;;3.10;;
313;SDS011;143;51.634;7.112;2022-09-13T04:35:41;6.97;;;4.07;;
313;SDS011;143;51.634;7.112;2022-09-13T04:38:07;10.63;;;3.60;;
313;SDS011;143;51.634;7.112;2022-09-13T04:40:33;10.50;;;3.97;;
313;SDS011;143;51.634;7.112;2022-09-13T04:43:00;9.80;;;3.80;;
313;SDS011;143;51.634;7.112;2022-09-13T04:45:26;11.13;;;3.33;;
313;SDS011;143;51.634;7.112;2022-09-13T04:47:53;6.23;;;3.60;;
313;SDS011;143;51.634;7.112;2022-09-13T04:50:20;6.30;;;3.60;;
313;SDS011;143;51.634;7.112;2022-09-13T04:52:47;7.77;;;4.07;;
313;SDS011;143;51.634;7.112;2022-09-13T04:55:13;8.33;;;3.33;;
313;SDS011;143;51.634;7.112;2022-09-13T04:57:39;5.60;;;3.10;;
313;SDS011;143;51.634;7.112;2022-09-13T05:00:05;5.13;;;3.10;;
313;SDS011;143;51.634;7.112;2022-09-13T05:02:33;8.10;;;3.47;;
313;SDS011;143;51.634;7.112;2022-09-13T05:04:58;5.83;;;3.30;;
313;SDS011;143;51.634;7.112;2022-09-13T05:07:24;6.17;;;3.53;;
313;SDS011;143;51.634;7.112;2022-09-13T05:09:50;5.63;;;3.70;;
313;SDS011;143;51.634;7.112;2022-09-13T05:12:15;7.83;;;3.57;;
313;SDS011;143;51.634;7.112;2022-09-13T05:14:41;5.37;;;2.73;;
313;SDS011;143;51.634;7.112;2022-09-13T05:17:07;6.13;;;3.20;;
313;SDS011;143;51.634;7.112;2022-09-13T05:19:33;5.40;;;3.07;;
313;SDS011;143;51.634;7.112;2022-09-13T05:21:59;9.67;;;3.30;;
313;SDS011;143;51.634;7.112;2022-09-13T05:24:25;6.77;;;3.50;;
313;SDS011;143;51.634;7.112;2022-09-13T05:26:51;10.17;;;3.50;;
313;SDS011;143;51.634;7.112;2022-09-13T05:29:17;6.50;;;3.43;;
313;SDS011;143;51.634;7.112;2022-09-13T05:31:42;13.23;;;3.80;;
313;SDS011;143;51.634;7.112;2022-09-13T05:34:12;5.73;;;3.20;;
313;SDS011;143;51.634;7.112;2022-09-13T05:36:40;6.77;;;3.17;;
313;SDS011;143;51.634;7.112;2022-09-13T05:39:06;4.90;;;3.30;;
313;SDS011;143;51.634;7.112;2022-09-13T05:41:36;7.70;;;3.70;;
313;SDS011;143;51.634;7.112;2022-09-13T05:44:01;7.47;;;3.80;;
313;SDS011;143;51.634;7.112;2022-09-13T05:46:27;12.60;;;4.00;;
313;SDS011;143;51.634;7.112;2022-09-13T05:48:56;7.33;;;4.07;;
313;SDS011;143;51.634;7.112;2022-09-13T05:51:22;7.53;;;3.40;;
313;SDS011;143;51.634;7.112;2022-09-13T05:53:48;9.57;;;3.90;;
313;SDS011;143;51.634;7.112;2022-09-13T05:56:16;5.73;;;3.40;;
313;SDS011;143;51.634;7.112;2022-09-13T05:58:45;8.33;;;3.80;;
313;SDS011;143;51.634;7.112;2022-09-13T06:01:13;5.50;;;3.30;;
313;SDS011;143;51.634;7.112;2022-09-13T06:03:40;5.87;;;3.00;;
313;SDS011;143;51.634;7.112;2022-09-13T06:06:06;5.30;;;3.30;;
313;SDS011;143;51.634;7.112;2022-09-13T06:08:34;5.80;;;3.00;;
313;SDS011;143;51.634;7.112;2022-09-13T06:11:04;10.53;;;4.80;;
313;SDS011;143;51.634;7.112;2022-09-13T06:13:31;7.40;;;4.23;;
313;SDS011;143;51.634;7.112;2022-09-13T06:15:58;6.07;;;3.63;;
313;SDS011;143;51.634;7.112;2022-09-13T06:18:25;21.40;;;4.63;;
313;SDS011;143;51.634;7.112;2022-09-13T06:20:58;9.27;;;4.13;;
313;SDS011;143;51.634;7.112;2022-09-13T06:23:26;15.40;;;5.53;;
313;SDS011;143;51.634;7.112;2022-09-13T06:26:02;7.37;;;4.20;;
313;SDS011;143;51.634;7.112;2022-09-13T06:28:28;7.70;;;4.20;;
313;SDS011;143;51.634;7.112;2022-09-13T06:31:01;7.73;;;4.37;;
313;SDS011;143;51.634;7.112;2022-09-13T06:33:30;8.40;;;4.07;;
313;SDS011;143;51.634;7.112;2022-09-13T06:35:59;9.83;;;4.50;;
313;SDS011;143;51.634;7.112;2022-09-13T06:38:26;11.37;;;5.00;;
313;SDS011;143;51.634;7.112;2022-09-13T06:41:11;10.37;;;5.10;;
313;SDS011;143;51.634;7.112;2022-09-13T06:43:38;10.47;;;5.50;;
313;SDS011;143;51.634;7.112;2022-09-13T06:46:06;10.40;;;4.83;;
313;SDS011;143;51.634;7.112;2022-09-13T06:48:36;14.63;;;5.50;;
313;SDS011;143;51.634;7.112;2022-09-13T06:51:05;10.50;;;5.20;;
313;SDS011;143;51.634;7.112;2022-09-13T06:53:33;12.47;;;6.37;;
313;SDS011;143;51.634;7.112;2022-09-13T06:56:01;10.40;;;5.20;;
313;SDS011;143;51.634;7.112;2022-09-13T06:58:38;14.03;;;5.80;;
313;SDS011;143;51.634;7.112;2022-09-13T07:01:07;15.13;;;6.13;;
313;SDS011;143;51.634;7.112;2022-09-13T07:03:40;16.40;;;6.00;;
313;SDS011;143;51.634;7.112;2022-09-13T07:06:11;14.50;;;5.93;;
313;SDS011;143;51.634;7.112;2022-09-13T07:08:39;9.37;;;5.20;;
313;SDS011;143;51.634;7.112;2022-09-13T07:11:06;10.53;;;5.20;;
313;SDS011;143;51.634;7.112;2022-09-13T07:13:33;8.20;;;4.73;;
313;SDS011;143;51.634;7.112;2022-09-13T07:16:03;12.00;;;4.60;;
313;SDS011;143;51.634;7.112;2022-09-13T07:18:30;8.87;;;4.90;;
313;SDS011;143;51.634;7.112;2022-09-13T07:21:02;7.70;;;5.37;;
313;SDS011;143;51.634;7.112;2022-09-13T07:23:33;8.10;;;4.93;;
313;SDS011;143;51.634;7.112;2022-09-13T07:26:00;13.03;;;4.93;;
313;SDS011;143;51.634;7.112;2022-09-13T07:28:30;9.47;;;5.60;;
313;SDS011;143;51.634;7.112;2022-09-13T07:31:03;14.47;;;5.07;;
313;SDS011;143;51.634;7.112;2022-09-13T07:33:33;12.17;;;5.30;;
313;SDS011;143;51.634;7.112;2022-09-13T07:35:59;14.83;;;5.10;;
313;SDS011;143;51.634;7.112;2022-09-13T07:38:27;11.43;;;5.87;;
313;SDS011;143;51.634;7.112;2022-09-13T07:40:56;9.40;;;6.40;;
313;SDS011;143;51.634;7.112;2022-09-13T07:43:26;22.50;;;7.10;;
313;SDS011;143;51.634;7.112;2022-09-13T07:46:00;11.43;;;5.60;;
313;SDS011;143;51.634;7.112;2022-09-13T07:48:27;11.47;;;6.03;;
313;SDS011;143;51.634;7.112;2022-09-13T07:51:02;10.13;;;4.90;;
313;SDS011;143;51.634;7.112;2022-09-13T07:53:33;13.47;;;6.60;;
313;SDS011;143;51.634;7.112;2022-09-13T07:56:02;9.60;;;6.10;;
313;SDS011;143;51.634;7.112;2022-09-13T07:58:29;11.87;;;5.43;;
313;SDS011;143;51.634;7.112;2022-09-13T08:00:57;11.20;;;5.80;;
313;SDS011;143;51.634;7.112;2022-09-13T08:03:29;12.63;;;7.37;;
313;SDS011;143;51.634;7.112;2022-09-13T08:05:54;16.30;;;7.27;;
313;SDS011;143;51.634;7.112;2022-09-13T08:08:20;18.93;;;6.63;;
313;SDS011;143;51.634;7.112;2022-09-13T08:10:46;15.03;;;7.13;;
313;SDS011;143;51.634;7.112;2022-09-13T08:13:12;11.13;;;6.90;;
313;SDS011;143;51.634;7.112;2022-09-13T08:15:40;14.27;;;8.07;;
313;SDS011;143;51.634;7.112;2022-09-13T08:18:06;12.43;;;8.00;;
313;SDS011;143;51.634;7.112;2022-09-13T08:20:34;10.60;;;7.47;;
313;SDS011;143;51.634;7.112;2022-09-13T08:23:01;12.83;;;7.30;;
313;SDS011;143;51.634;7.112;2022-09-13T08:25:27;14.30;;;6.90;;
313;SDS011;143;51.634;7.112;2022-09-13T08:27:52;15.63;;;8.00;;
313;SDS011;143;51.634;7.112;2022-09-13T08:30:18;16.07;;;8.70;;
313;SDS011;143;51.634;7.112;2022-09-13T08:32:43;15.67;;;8.03;;
313;SDS011;143;51.634;7.112;2022-09-13T08:35:09;26.63;;;7.60;;
313;SDS011;143;51.634;7.112;2022-09-13T08:37:35;17.77;;;7.47;;
313;SDS011;143;51.634;7.112;2022-09-13T08:40:00;20.10;;;8.63;;
313;SDS011;143;51.634;7.112;2022-09-13T08:45:07;12.50;;;8.00;;
313;SDS011;143;51.634;7.112;2022-09-13T08:47:43;12.97;;;7.40;;
313;SDS011;143;51.634;7.112;2022-09-13T08:50:18;11.47;;;7.43;;
313;SDS011;143;51.634;7.112;2022-09-13T08:52:56;17.33;;;6.90;;
313;SDS011;143;51.634;7.112;2022-09-13T08:55:42;14.10;;;7.23;;
313;SDS011;143;51.634;7.112;2022-09-13T08:58:25;19.27;;;8.70;;
313;SDS011;143;51.634;7.112;2022-09-13T09:06:24;19.90;;;8.37;;
313;SDS011;143;51.634;7.112;2022-09-13T09:08:51;19.23;;;9.70;;
313;SDS011;143;51.634;7.112;2022-09-13T09:11:40;15.07;;;8.23;;
313;SDS011;143;51.634;7.112;2022-09-13T09:16:52;13.70;;;8.00;;
313;SDS011;143;51.634;7.112;2022-09-13T09:19:27;19.10;;;8.43;;
313;SDS011;143;51.634;7.112;2022-09-13T09:22:00;15.30;;;9.00;;
313;SDS011;143;51.634;7.112;2022-09-13T09:24:29;15.60;;;9.17;;
313;SDS011;143;51.634;7.112;2022-09-13T09:27:00;22.17;;;9.93;;
313;SDS011;143;51.634;7.112;2022-09-13T09:29:33;16.67;;;9.90;;
313;SDS011;143;51.634;7.112;2022-09-13T09:35:01;13.23;;;8.70;;
313;SDS011;143;51.634;7.112;2022-09-13T09:37:35;14.30;;;8.73;;
313;SDS011;143;51.634;7.112;2022-09-13T09:40:04;11.90;;;8.20;;
313;SDS011;143;51.634;7.112;2022-09-13T09:42:44;21.73;;;9.77;;
313;SDS011;143;51.634;7.112;2022-09-13T09:45:17;18.30;;;9.90;;
313;SDS011;143;51.634;7.112;2022-09-13T09:47:45;13.53;;;9.40;;
313;SDS011;143;51.634;7.112;2022-09-13T09:50:18;15.97;;;8.23;;
313;SDS011;143;51.634;7.112;2022-09-13T09:52:55;17.70;;;9.63;;
313;SDS011;143;51.634;7.112;2022-09-13T09:55:34;17.93;;;9.83;;
313;SDS011;143;51.634;7.112;2022-09-13T09:58:14;17.40;;;8.40;;
313;SDS011;143;51.634;7.112;2022-09-13T10:00:51;17.00;;;10.80;;
313;SDS011;143;51.634;7.112;2022-09-13T10:03:25;18.10;;;9.97;;
313;SDS011;143;51.634;7.112;2022-09-13T10:06:05;12.10;;;8.17;;
313;SDS011;143;51.634;7.112;2022-09-13T10:08:37;18.73;;;9.37;;
313;SDS011;143;51.634;7.112;2022-09-13T10:11:06;13.20;;;9.07;;
313;SDS011;143;51.634;7.112;2022-09-13T10:13:33;13.03;;;8.20;;
313;SDS011;143;51.634;7.112;2022-09-13T10:16:01;17.00;;;10.37;;
313;SDS011;143;51.634;7.112;2022-09-13T10:18:30;18.37;;;11.47;;
313;SDS011;143;51.634;7.112;2022-09-13T10:23:29;17.57;;;9.30;;
313;SDS011;143;51.634;7.112;2022-09-13T10:26:03;17.87;;;10.07;;
313;SDS011;143;51.634;7.112;2022-09-13T10:28:34;16.33;;;10.70;;
313;SDS011;143;51.634;7.112;2022-09-13T10:31:05;18.80;;;9.70;;
313;SDS011;143;51.634;7.112;2022-09-13T10:33:35;15.53;;;9.23;;
313;SDS011;143;51.634;7.112;2022-09-13T10:36:13;14.50;;;9.10;;
313;SDS011;143;51.634;7.112;2022-09-13T10:38:56;15.20;;;8.93;;
313;SDS011;143;51.634;7.112;2022-09-13T10:41:27;15.27;;;9.97;;
313;SDS011;143;51.634;7.112;2022-09-13T10:43:57;13.40;;;9.13;;
313;SDS011;143;51.634;7.112;2022-09-13T10:46:27;15.57;;;9.00;;
313;SDS011;143;51.634;7.112;2022-09-13T10:48:55;16.03;;;9.40;;
313;SDS011;143;51.634;7.112;2022-09-13T10:53:50;13.60;;;8.70;;
313;SDS011;143;51.634;7.112;2022-09-13T10:56:47;17.80;;;7.57;;
313;SDS011;143;51.634;7.112;2022-09-13T11:10:14;13.40;;;8.63;;
313;SDS011;143;51.634;7.112;2022-09-13T11:19:02;14.50;;;7.50;;
313;SDS011;143;51.634;7.112;2022-09-13T11:24:56;13.50;;;8.67;;
313;SDS011;143;51.634;7.112;2022-09-13T11:27:53;10.83;;;7.83;;
313;SDS011;143;51.634;7.112;2022-09-13T11:30:28;15.93;;;8.80;;
313;SDS011;143;51.634;7.112;2022-09-13T11:33:01;15.03;;;8.40;;
313;SDS011;143;51.634;7.112;2022-09-13T11:46:08;12.50;;;7.43;;
313;SDS011;143;51.634;7.112;2022-09-13T11:48:44;11.00;;;6.60;;
313;SDS011;143;51.634;7.112;2022-09-13T11:57:18;15.23;;;8.50;;
313;SDS011;143;51.634;7.112;2022-09-13T12:02:58;12.23;;;7.80;;
313;SDS011;143;51.634;7.112;2022-09-13T12:05:29;14.17;;;6.97;;
313;SDS011;143;51.634;7.112;2022-09-13T12:08:12;13.10;;;7.03;;
313;SDS011;143;51.634;7.112;2022-09-13T12:13:45;11.00;;;7.87;;
313;SDS011;143;51.634;7.112;2022-09-13T12:16:32;11.47;;;7.23;;
313;SDS011;143;51.634;7.112;2022-09-13T12:19:10;20.30;;;7.90;;
313;SDS011;143;51.634;7.112;2022-09-13T12:21:48;15.57;;;8.17;;
313;SDS011;143;51.634;7.112;2022-09-13T12:24:20;10.80;;;7.47;;
313;SDS011;143;51.634;7.112;2022-09-13T12:27:22;10.60;;;6.90;;
313;SDS011;143;51.634;7.112;2022-09-13T12:32:56;9.20;;;6.03;;
313;SDS011;143;51.634;7.112;2022-09-13T13:02:23;11.80;;;6.17;;
313;SDS011;143;51.634;7.112;2022-09-13T13:04:54;9.10;;;4.67;;
313;SDS011;143;51.634;7.112;2022-09-13T13:07:24;8.13;;;5.37;;
313;SDS011;143;51.634;7.112;2022-09-13T13:09:52;11.37;;;5.40;;
313;SDS011;143;51.634;7.112;2022-09-13T13:12:27;7.57;;;5.07;;
313;SDS011;143;51.634;7.112;2022-09-13T13:17:45;10.47;;;5.00;;
313;SDS011;143;51.634;7.112;2022-09-13T13:36:27;9.10;;;5.37;;
313;SDS011;143;51.634;7.112;2022-09-13T13:39:11;11.20;;;5.67;;
313;SDS011;143;51.634;7.112;2022-09-13T13:57:21;9.67;;;4.70;;
313;SDS011;143;51.634;7.112;2022-09-13T13:59:49;8.83;;;5.10;;
313;SDS011;143;51.634;7.112;2022-09-13T14:02:22;14.30;;;5.50;;
313;SDS011;143;51.634;7.112;2022-09-13T14:05:05;14.60;;;6.10;;
313;SDS011;143;51.634;7.112;2022-09-13T14:07:51;7.80;;;4.53;;
313;SDS011;143;51.634;7.112;2022-09-13T14:10:42;8.80;;;4.67;;
313;SDS011;143;51.634;7.112;2022-09-13T14:16:21;13.93;;;5.00;;
313;SDS011;143;51.634;7.112;2022-09-13T14:23:47;9.20;;;5.23;;
313;SDS011;143;51.634;7.112;2022-09-13T14:26:13;10.70;;;4.87;;
313;SDS011;143;51.634;7.112;2022-09-13T14:28:40;8.40;;;5.20;;
313;SDS011;143;51.634;7.112;2022-09-13T14:31:07;8.10;;;4.13;;
313;SDS011;143;51.634;7.112;2022-09-13T14:33:43;9.53;;;4.47;;
313;SDS011;143;51.634;7.112;2022-09-13T14:36:19;8.57;;;4.77;;
313;SDS011;143;51.634;7.112;2022-09-13T14:38:47;5.60;;;4.13;;
313;SDS011;143;51.634;7.112;2022-09-13T14:41:16;9.60;;;4.20;;
313;SDS011;143;51.634;7.112;2022-09-13T14:43:44;7.30;;;5.13;;
313;SDS011;143;51.634;7.112;2022-09-13T14:46:24;13.27;;;6.37;;
313;SDS011;143;51.634;7.112;2022-09-13T14:48:59;8.53;;;5.53;;
313;SDS011;143;51.634;7.112;2022-09-13T14:51:29;9.73;;;5.30;;
313;SDS011;143;51.634;7.112;2022-09-13T14:54:10;8.63;;;5.27;;
313;SDS011;143;51.634;7.112;2022-09-13T14:56:50;11.93;;;5.33;;
313;SDS011;143;51.634;7.112;2022-09-13T14:59:25;10.30;;;5.13;;
313;SDS011;143;51.634;7.112;2022-09-13T15:01:51;5.83;;;4.20;;
313;SDS011;143;51.634;7.112;2022-09-13T15:04:17;11.30;;;6.00;;
313;SDS011;143;51.634;7.112;2022-09-13T15:06:45;7.03;;;4.00;;
313;SDS011;143;51.634;7.112;2022-09-13T15:14:32;10.70;;;5.43;;
313;SDS011;143;51.634;7.112;2022-09-13T15:17:05;8.83;;;5.20;;
313;SDS011;143;51.634;7.112;2022-09-13T15:24:56;12.50;;;5.57;;
313;SDS011;143;51.634;7.112;2022-09-13T15:29:54;7.43;;;4.83;;
313;SDS011;143;51.634;7.112;2022-09-13T15:32:23;8.70;;;4.80;;
313;SDS011;143;51.634;7.112;2022-09-13T15:34:54;7.40;;;4.40;;
313;SDS011;143;51.634;7.112;2022-09-13T15:37:31;7.27;;;4.50;;
313;SDS011;143;51.634;7.112;2022-09-13T15:40:14;7.10;;;5.10;;
313;SDS011;143;51.634;7.112;2022-09-13T15:42:46;8.03;;;5.00;;
313;SDS011;143;51.634;7.112;2022-09-13T15:45:16;9.63;;;4.43;;
313;SDS011;143;51.634;7.112;2022-09-13T15:47:45;9.87;;;5.13;;
313;SDS011;143;51.634;7.112;2022-09-13T15:50:19;11.63;;;4.40;;
313;SDS011;143;51.634;7.112;2022-09-13T15:52:51;9.57;;;4.57;;
313;SDS011;143;51.634;7.112;2022-09-13T15:55:18;10.93;;;4.70;;
313;SDS011;143;51.634;7.112;2022-09-13T15:57:44;7.70;;;3.70;;
313;SDS011;143;51.634;7.112;2022-09-13T16:00:14;5.73;;;4.00;;
313;SDS011;143;51.634;7.112;2022-09-13T16:02:45;9.30;;;5.10;;
313;SDS011;143;51.634;7.112;2022-09-13T16:05:11;10.07;;;5.13;;
313;SDS011;143;51.634;7.112;2022-09-13T16:07:38;9.30;;;4.90;;
313;SDS011;143;51.634;7.112;2022-09-13T16:10:12;5.70;;;4.13;;
313;SDS011;143;51.634;7.112;2022-09-13T16:12:43;9.50;;;5.43;;
313;SDS011;143;51.634;7.112;2022-09-13T16:15:09;12.30;;;5.23;;
313;SDS011;143;51.634;7.112;2022-09-13T16:17:36;10.27;;;4.73;;
313;SDS011;143;51.634;7.112;2022-09-13T16:20:03;13.20;;;5.10;;
313;SDS011;143;51.634;7.112;2022-09-13T16:22:31;7.73;;;4.37;;
313;SDS011;143;51.634;7.112;2022-09-13T16:24:57;8.57;;;4.47;;
313;SDS011;143;51.634;7.112;2022-09-13T16:27:23;7.10;;;4.50;;
313;SDS011;143;51.634;7.112;2022-09-13T16:29:50;7.83;;;4.70;;
313;SDS011;143;51.634;7.112;2022-09-13T16:32:17;5.53;;;3.90;;
313;SDS011;143;51.634;7.112;2022-09-13T16:34:43;9.53;;;4.27;;
313;SDS011;143;51.634;7.112;2022-09-13T16:37:13;9.27;;;4.30;;
313;SDS011;143;51.634;7.112;2022-09-13T16:39:40;7.23;;;3.90;;
313;SDS011;143;51.634;7.112;2022-09-13T16:42:06;7.50;;;3.93;;
313;SDS011;143;51.634;7.112;2022-09-13T16:44:31;9.17;;;4.00;;
313;SDS011;143;51.634;7.112;2022-09-13T16:46:57;7.80;;;4.40;;
313;SDS011;143;51.634;7.112;2022-09-13T16:49:23;9.13;;;4.20;;
313;SDS011;143;51.634;7.112;2022-09-13T16:51:49;5.80;;;3.53;;
313;SDS011;143;51.634;7.112;2022-09-13T16:54:15;6.23;;;3.63;;
313;SDS011;143;51.634;7.112;2022-09-13T16:56:41;6.37;;;3.87;;
313;SDS011;143;51.634;7.112;2022-09-13T16:59:07;8.47;;;4.10;;
313;SDS011;143;51.634;7.112;2022-09-13T17:01:33;7.63;;;4.00;;
313;SDS011;143;51.634;7.112;2022-09-13T17:03:58;5.60;;;3.73;;
313;SDS011;143;51.634;7.112;2022-09-13T17:06:25;8.00;;;4.00;;
313;SDS011;143;51.634;7.112;2022-09-13T17:08:55;7.73;;;3.90;;
313;SDS011;143;51.634;7.112;2022-09-13T17:11:26;8.27;;;3.20;;
313;SDS011;143;51.634;7.112;2022-09-13T17:13:53;11.67;;;4.07;;
313;SDS011;143;51.634;7.112;2022-09-13T17:18:51;5.73;;;3.20;;
313;SDS011;143;51.634;7.112;2022-09-13T17:21:18;9.20;;;3.60;;
313;SDS011;143;51.634;7.112;2022-09-13T17:23:44;14.50;;;4.57;;
313;SDS011;143;51.634;7.112;2022-09-13T17:26:10;7.70;;;3.83;;
313;SDS011;143;51.634;7.112;2022-09-13T17:28:35;5.70;;;3.60;;
313;SDS011;143;51.634;7.112;2022-09-13T17:31:01;8.20;;;4.07;;
313;SDS011;143;51.634;7.112;2022-09-13T17:33:27;5.30;;;3.53;;
313;SDS011;143;51.634;7.112;2022-09-13T17:35:59;6.80;;;3.83;;
313;SDS011;143;51.634;7.112;2022-09-13T17:38:32;11.03;;;3.50;;
313;SDS011;143;51.634;7.112;2022-09-13T17:41:03;5.00;;;3.60;;
313;SDS011;143;51.634;7.112;2022-09-13T17:43:29;7.70;;;3.40;;
313;SDS011;143;51.634;7.112;2022-09-13T17:45:55;4.27;;;2.90;;
313;SDS011;143;51.634;7.112;2022-09-13T17:48:21;8.07;;;3.17;;
313;SDS011;143;51.634;7.112;2022-09-13T17:50:47;6.23;;;3.13;;
313;SDS011;143;51.634;7.112;2022-09-13T17:53:13;4.20;;;2.57;;
313;SDS011;143;51.634;7.112;2022-09-13T17:55:48;10.80;;;3.47;;
313;SDS011;143;51.634;7.112;2022-09-13T17:58:14;4.77;;;2.40;;
313;SDS011;143;51.634;7.112;2022-09-13T18:00:40;3.80;;;2.30;;
313;SDS011;143;51.634;7.112;2022-09-13T18:03:06;7.43;;;2.97;;
313;SDS011;143;51.634;7.112;2022-09-13T18:05:32;7.37;;;2.63;;
313;SDS011;143;51.634;7.112;2022-09-13T18:07:57;3.70;;;2.20;;
313;SDS011;143;51.634;7.112;2022-09-13T18:10:23;6.00;;;2.60;;
313;SDS011;143;51.634;7.112;2022-09-13T18:12:49;4.20;;;2.27;;
313;SDS011;143;51.634;7.112;2022-09-13T18:15:14;2.33;;;1.83;;
313;SDS011;143;51.634;7.112;2022-09-13T18:17:40;4.77;;;2.40;;
313;SDS011;143;51.634;7.112;2022-09-13T18:20:06;8.23;;;2.27;;
313;SDS011;143;51.634;7.112;2022-09-13T18:22:32;4.20;;;2.20;;
313;SDS011;143;51.634;7.112;2022-09-13T18:24:58;6.60;;;2.13;;
313;SDS011;143;51.634;7.112;2022-09-13T18:27:23;4.50;;;2.00;;
313;SDS011;143;51.634;7.112;2022-09-13T18:29:49;4.03;;;2.00;;
313;SDS011;143;51.634;7.112;2022-09-13T18:32:15;3.83;;;2.20;;
313;SDS011;143;51.634;7.112;2022-09-13T18:34:40;2.83;;;2.03;;
313;SDS011;143;51.634;7.112;2022-09-13T18:37:07;4.53;;;2.10;;
313;SDS011;143;51.634;7.112;2022-09-13T18:39:33;3.13;;;1.90;;
313;SDS011;143;51.634;7.112;2022-09-13T18:41:59;5.80;;;2.10;;
313;SDS011;143;51.634;7.112;2022-09-13T18:44:25;5.77;;;1.50;;
313;SDS011;143;51.634;7.112;2022-09-13T18:46:54;3.53;;;1.93;;
313;SDS011;143;51.634;7.112;2022-09-13T18:49:20;4.30;;;1.50;;
313;SDS011;143;51.634;7.112;2022-09-13T18:51:46;2.13;;;1.53;;
313;SDS011;143;51.634;7.112;2022-09-13T18:54:14;5.20;;;1.87;;
313;SDS011;143;51.634;7.112;2022-09-13T18:56:42;2.80;;;1.50;;
313;SDS011;143;51.634;7.112;2022-09-13T18:59:08;4.50;;;1.40;;
313;SDS011;143;51.634;7.112;2022-09-13T19:01:38;8.93;;;1.57;;
313;SDS011;143;51.634;7.112;2022-09-13T19:06:43;3.30;;;1.50;;
313;SDS011;143;51.634;7.112;2022-09-13T19:09:16;6.47;;;1.23;;
313;SDS011;143;51.634;7.112;2022-09-13T19:11:45;5.93;;;1.40;;
313;SDS011;143;51.634;7.112;2022-09-13T19:14:16;4.30;;;1.17;;
313;SDS011;143;51.634;7.112;2022-09-13T19:16:50;12.60;;;1.73;;
313;SDS011;143;51.634;7.112;2022-09-13T19:19:18;4.60;;;1.40;;
313;SDS011;143;51.634;7.112;2022-09-13T19:21:44;6.03;;;1.70;;
313;SDS011;143;51.634;7.112;2022-09-13T19:24:10;1.77;;;1.10;;
313;SDS011;143;51.634;7.112;2022-09-13T19:26:39;3.00;;;1.00;;
313;SDS011;143;51.634;7.112;2022-09-13T19:29:09;6.57;;;1.50;;
313;SDS011;143;51.634;7.112;2022-09-13T19:31:46;10.63;;;1.80;;
313;SDS011;143;51.634;7.112;2022-09-13T19:34:13;4.20;;;1.10;;
313;SDS011;143;51.634;7.112;2022-09-13T19:36:41;4.17;;;1.20;;
313;SDS011;143;51.634;7.112;2022-09-13T19:39:08;2.23;;;0.80;;